LEZL

Sevilla Airport

Sevilla, Spain
TAF LEZL 171400Z 1715/1815 22007KT CAVOK TX35/1715Z TN21/1805Z BECMG 1812/1814 09010KT
Issued Valid From Valid To
Aug-17 @ 14:00 UTC
(57 minutes ago)
Aug-17 @ 15:00 UTC
(in 3 minutes)
Aug-18 @ 15:00 UTC
(in 24 hours)
Aug-17 @ 15:00 to Aug-18 @ 12:00
TAF LEZL 171400Z 1715/1815 22007KT CAVOK TX35/1715Z TN21/1805Z
Wind Visibility Clouds
220° at 7 knots 10,000+ meters
  • No significant clouds
Becoming Aug-18 @ 12:00 to Aug-18 @ 15:00
BECMG 1812/1814 09010KT
Wind Visibility Clouds
90° at 10 knots 10,000+ meters
  • No significant clouds
TAF LEZL 171400Z 1715/1815 22007KT CAVOK TX35/1715Z TN21/1805Z BECMG 1812/1814 09010KT
Issued Aug-17 @ 14:00 UTC
(57 minutes ago)
Valid From Aug-17 @ 15:00 UTC
(in 3 minutes)
Valid To Aug-18 @ 15:00 UTC
(in 24 hours)
Aug-17 @ 15:00 - Aug-18 @ 12:00
Wind Visibility
220° at 7 knots 10,000+ meters
Clouds
  • No significant clouds
Becoming Aug-18 @ 12:00 - Aug-18 @ 15:00
Wind Visibility
90° at 10 knots 10,000+ meters
Clouds
  • No significant clouds